Time;durP1;ratioP1;P1;durP2;ratioP2;P2;SDS_P1;SDS_P2;PMS_P1;PMS_P2;Temp;Humidity;BMP_temperature;BMP_pressure;BME280_temperature;BME280_humidity;BME280_pressure;Samples;Min_cycle;Max_cycle;Signal;HPM_P1;HPM_P2
2022/03/26 00:00:07;;;;;;;28.02;16.32;;;;;;;2.40;50.51;100635.51;1694082;83;21019;-56
2022/03/26 00:02:35;;;;;;;25.37;16.00;;;;;;;2.44;50.53;100639.47;1696415;82;21044;-59
2022/03/26 00:05:04;;;;;;;27.58;16.27;;;;;;;2.43;50.46;100637.37;1697410;83;21065;-55
2022/03/26 00:07:30;;;;;;;26.70;16.32;;;;;;;2.39;50.55;100633.41;1696199;83;21031;-56
2022/03/26 00:09:57;;;;;;;29.90;17.35;;;;;;;2.27;50.72;100636.92;1694978;83;21073;-56
2022/03/26 00:12:24;;;;;;;26.55;15.95;;;;;;;2.04;51.84;100637.42;1697578;81;21133;-56
2022/03/26 00:14:51;;;;;;;27.62;15.88;;;;;;;1.90;52.70;100636.41;1711109;81;22421;-57
2022/03/26 00:17:18;;;;;;;25.88;16.10;;;;;;;2.07;53.26;100632.52;1709648;81;21189;-56
2022/03/26 00:19:44;;;;;;;30.70;17.10;;;;;;;2.25;52.53;100625.95;1711702;82;21038;-56
2022/03/26 00:22:11;;;;;;;36.80;19.73;;;;;;;2.12;53.01;100622.69;1708473;82;21569;-58
2022/03/26 00:24:38;;;;;;;36.55;21.33;;;;;;;2.10;54.05;100623.29;1710181;82;21067;-58
2022/03/26 00:27:05;;;;;;;37.03;18.37;;;;;;;1.98;54.27;100619.10;1711115;81;21240;-57
2022/03/26 00:29:33;;;;;;;30.23;18.67;;;;;;;1.71;56.72;100621.57;1719611;82;21141;-55
2022/03/26 00:32:04;;;;;;;32.28;19.98;;;;;;;1.90;57.22;100619.22;1730808;81;20988;-54
2022/03/26 00:34:32;;;;;;;31.20;17.55;;;;;;;1.92;58.06;100616.52;1727707;82;21474;-60
2022/03/26 00:36:59;;;;;;;32.17;17.67;;;;;;;1.84;59.23;100618.40;1727704;82;21549;-57
2022/03/26 00:39:27;;;;;;;30.90;17.82;;;;;;;1.93;60.37;100613.85;1731594;81;21331;-54
2022/03/26 00:41:54;;;;;;;28.95;17.30;;;;;;;1.97;61.16;100609.29;1720163;81;21044;-55
2022/03/26 00:44:21;;;;;;;29.52;17.00;;;;;;;1.98;61.51;100613.95;1728948;82;20959;-54
2022/03/26 00:46:47;;;;;;;28.87;17.35;;;;;;;1.89;61.84;100608.56;1709784;81;21002;-57
2022/03/26 00:49:15;;;;;;;25.90;16.65;;;;;;;1.95;61.63;100611.96;1728120;82;21010;-56
2022/03/26 00:51:42;;;;;;;23.50;16.23;;;;;;;2.16;60.86;100605.63;1727908;82;21269;-56
2022/03/26 00:54:08;;;;;;;25.00;16.37;;;;;;;2.19;59.76;100601.98;1740800;81;20939;-57
2022/03/26 00:56:37;;;;;;;27.17;17.82;;;;;;;2.18;59.17;100603.74;1739079;81;20952;-59
2022/03/26 00:59:04;;;;;;;31.02;18.87;;;;;;;2.09;59.32;100603.19;1738210;82;21096;-55
2022/03/26 01:01:33;;;;;;;30.82;18.92;;;;;;;2.11;59.13;100594.88;1739758;81;21007;-56
2022/03/26 01:04:00;;;;;;;32.90;19.32;;;;;;;2.07;60.05;100599.09;1740982;81;21156;-55
2022/03/26 01:06:27;;;;;;;28.23;17.52;;;;;;;2.01;62.45;100596.55;1740553;81;20900;-56
2022/03/26 01:08:54;;;;;;;35.48;18.50;;;;;;;1.94;62.78;100599.23;1737919;81;22004;-56
2022/03/26 01:11:21;;;;;;;32.40;18.45;;;;;;;1.88;62.57;100603.56;1734235;80;21093;-55
2022/03/26 01:13:53;;;;;;;34.23;19.60;;;;;;;1.94;62.64;100604.38;1737857;82;20974;-55
2022/03/26 01:16:17;;;;;;;39.08;20.77;;;;;;;1.93;61.84;100598.86;1725494;82;21163;-58
2022/03/26 01:18:44;;;;;;;34.35;19.17;;;;;;;1.84;61.65;100604.73;1693910;82;21046;-58
2022/03/26 01:21:11;;;;;;;31.17;19.62;;;;;;;1.38;63.55;100601.80;1726778;82;22548;-55
2022/03/26 01:23:38;;;;;;;35.45;20.48;;;;;;;1.58;62.95;100601.58;1725729;82;20943;-54
2022/03/26 01:26:05;;;;;;;30.82;19.50;;;;;;;1.50;64.36;100599.59;1726561;82;20949;-57
2022/03/26 01:28:33;;;;;;;30.60;18.67;;;;;;;1.36;66.18;100601.91;1725027;82;21251;-59
2022/03/26 01:31:02;;;;;;;26.93;16.40;;;;;;;1.36;67.34;100603.66;1723713;82;21085;-55
2022/03/26 01:33:29;;;;;;;28.15;16.70;;;;;;;1.21;69.33;100608.19;1732168;82;21137;-55
2022/03/26 01:35:56;;;;;;;23.98;16.15;;;;;;;1.28;71.22;100599.56;1725576;82;21011;-55
2022/03/26 01:38:22;;;;;;;28.17;17.57;;;;;;;1.31;73.49;100599.34;1735959;81;20992;-58
2022/03/26 01:40:51;;;;;;;25.10;16.75;;;;;;;1.43;73.60;100598.41;1738697;81;21970;-59
2022/03/26 01:43:17;;;;;;;28.07;16.12;;;;;;;1.49;73.55;100602.29;1738078;81;21041;-55
2022/03/26 01:45:44;;;;;;;28.17;17.20;;;;;;;1.34;74.47;100598.65;1736448;82;20987;-55
2022/03/26 01:48:11;;;;;;;26.30;17.48;;;;;;;1.58;73.82;100593.88;1737165;82;21066;-55
2022/03/26 01:50:40;;;;;;;27.00;15.90;;;;;;;1.46;73.93;100599.47;1737985;81;20919;-59
2022/03/26 01:53:07;;;;;;;24.45;15.00;;;;;;;1.61;72.00;100598.78;1732394;82;21283;-54
2022/03/26 01:55:34;;;;;;;23.52;14.40;;;;;;;1.65;70.53;100598.42;1728463;82;21075;-58
2022/03/26 01:58:01;;;;;;;23.87;15.45;;;;;;;1.62;69.90;100599.13;1727137;82;21016;-57
2022/03/26 02:00:28;;;;;;;25.05;15.38;;;;;;;1.64;68.99;100598.55;1726648;82;20869;-56
2022/03/26 02:02:55;;;;;;;26.95;15.65;;;;;;;1.54;68.77;100594.56;1725860;81;21583;-56
2022/03/26 02:05:21;;;;;;;23.15;14.63;;;;;;;1.74;67.04;100594.33;1734106;82;21184;-55
2022/03/26 02:07:49;;;;;;;22.75;14.65;;;;;;;1.64;65.86;100591.66;1734649;81;21077;-55
2022/03/26 02:10:18;;;;;;;28.98;15.65;;;;;;;1.55;66.26;100588.48;1734612;82;21003;-57
2022/03/26 02:12:46;;;;;;;21.57;14.53;;;;;;;1.48;66.36;100590.36;1735089;81;20943;-60
2022/03/26 02:15:14;;;;;;;24.40;15.45;;;;;;;1.48;66.36;100590.36;1734336;82;21586;-57
2022/03/26 02:17:42;;;;;;;23.52;14.18;;;;;;;1.72;64.37;100593.64;1735355;81;21143;-55
2022/03/26 02:20:10;;;;;;;26.90;16.12;;;;;;;1.55;64.14;100584.63;1734499;82;21038;-55
2022/03/26 02:22:38;;;;;;;23.52;14.85;;;;;;;1.55;64.14;100584.63;1735800;81;20962;-54
2022/03/26 02:25:07;;;;;;;26.65;15.70;;;;;;;1.50;64.42;100591.88;1736550;81;20987;-56
2022/03/26 02:27:34;;;;;;;24.63;15.48;;;;;;;1.36;64.65;100587.77;1735399;81;21013;-54
2022/03/26 02:30:00;;;;;;;27.87;16.35;;;;;;;1.47;64.30;100585.69;1734399;82;21258;-55
2022/03/26 02:32:28;;;;;;;26.82;15.45;;;;;;;1.16;65.56;100587.99;1735421;81;20882;-60
2022/03/26 02:34:55;;;;;;;24.90;15.23;;;;;;;1.22;65.35;100332.52;1723603;82;20951;-54
2022/03/26 02:37:23;;;;;;;29.40;17.23;;;;;;;2.91;55.88;100585.45;1733782;82;21126;-55
2022/03/26 02:39:49;;;;;;;25.43;15.98;;;;;;;2.91;55.88;100585.45;1685206;84;21599;-56
2022/03/26 02:42:16;;;;;;;29.30;17.07;;;;;;;3.05;54.50;100584.80;1726768;82;21297;-56
2022/03/26 02:44:43;;;;;;;31.15;17.35;;;;;;;3.10;53.95;100579.60;1725432;82;20943;-59
2022/03/26 02:47:11;;;;;;;29.00;17.12;;;;;;;3.11;53.31;100583.83;1727665;82;21007;-59
2022/03/26 02:49:38;;;;;;;21.52;14.73;;;;;;;3.10;52.56;100587.80;1725967;82;21082;-57
2022/03/26 02:52:06;;;;;;;29.98;15.93;;;;;;;3.06;52.31;100578.70;1726588;82;21102;-57
2022/03/26 02:54:33;;;;;;;25.92;15.13;;;;;;;2.99;52.45;100574.99;1725832;81;21117;-58
2022/03/26 02:57:00;;;;;;;24.32;14.90;;;;;;;2.99;52.45;100574.99;1707412;82;21014;-57
2022/03/26 02:59:26;;;;;;;25.15;14.95;;;;;;;2.95;52.51;100576.19;1723931;82;21078;-57
2022/03/26 03:01:53;;;;;;;25.20;15.53;;;;;;;2.95;52.51;100576.19;1730104;82;21205;-57
2022/03/26 03:04:21;;;;;;;24.07;15.38;;;;;;;2.44;53.73;100577.72;1717102;82;21090;-56
2022/03/26 03:06:48;;;;;;;21.77;15.00;;;;;;;3.01;52.36;100572.65;1724432;82;21145;-60
2022/03/26 03:09:15;;;;;;;23.92;14.03;;;;;;;3.01;52.36;100572.65;1719889;82;21069;-61
2022/03/26 03:11:42;;;;;;;25.43;14.80;;;;;;;3.02;52.09;100578.13;1726234;82;21094;-55
2022/03/26 03:14:10;;;;;;;21.48;15.23;;;;;;;2.95;52.18;100571.04;1726422;82;20979;-55
2022/03/26 03:16:38;;;;;;;24.80;14.63;;;;;;;3.02;51.94;100573.45;1727072;82;20944;-57
2022/03/26 03:19:05;;;;;;;22.35;13.48;;;;;;;2.84;52.19;100572.76;1728308;82;21268;-59
2022/03/26 03:21:32;;;;;;;22.17;14.38;;;;;;;2.84;52.31;100570.62;1728675;82;21490;-55
2022/03/26 03:23:58;;;;;;;25.27;16.07;;;;;;;2.96;52.18;100574.80;1728365;82;21085;-56
2022/03/26 03:26:25;;;;;;;21.33;14.10;;;;;;;3.16;51.74;100577.00;1727015;82;20968;-59
2022/03/26 03:28:51;;;;;;;22.32;15.08;;;;;;;3.21;51.28;100577.43;1727938;81;21611;-56
2022/03/26 03:31:18;;;;;;;27.35;15.60;;;;;;;3.33;51.06;100577.72;1726831;81;21238;-58
2022/03/26 03:33:46;;;;;;;25.17;15.25;;;;;;;3.38;50.98;100573.47;1728260;81;21599;-55
2022/03/26 03:36:13;;;;;;;26.40;16.50;;;;;;;3.60;51.05;100570.71;1726742;82;21101;-59
2022/03/26 03:38:41;;;;;;;25.05;15.08;;;;;;;3.60;51.05;100570.71;1727432;82;21022;-56
2022/03/26 03:41:08;;;;;;;23.55;13.40;;;;;;;3.77;50.61;100569.27;1726984;82;21055;-58
2022/03/26 03:43:35;;;;;;;21.55;13.80;;;;;;;4.06;50.30;100564.66;1725531;82;21158;-57
2022/03/26 03:46:01;;;;;;;20.90;14.03;;;;;;;4.43;49.33;100560.94;1728369;82;20994;-56
2022/03/26 03:48:28;;;;;;;26.85;14.15;;;;;;;4.71;48.96;100558.50;1725812;82;21017;-56
2022/03/26 03:50:56;;;;;;;23.47;14.23;;;;;;;5.04;48.43;100562.41;1718146;82;22394;-56
2022/03/26 03:53:22;;;;;;;26.50;15.60;;;;;;;3.72;50.99;100564.17;1725644;81;21050;-56
2022/03/26 03:55:49;;;;;;;25.70;15.05;;;;;;;3.99;51.24;100557.11;1721426;82;22368;-56
2022/03/26 03:58:16;;;;;;;23.70;14.68;;;;;;;4.51;50.72;100548.64;1731673;82;20889;-59
2022/03/26 04:00:44;;;;;;;27.48;15.63;;;;;;;5.01;49.77;100551.86;1713052;79;20974;-56
2022/03/26 04:03:12;;;;;;;22.60;15.85;;;;;;;5.46;48.77;100547.30;1758198;81;21535;-55
2022/03/26 04:05:39;;;;;;;21.10;14.53;;;;;;;5.92;47.74;100553.81;1748192;81;20962;-56
2022/03/26 04:08:07;;;;;;;20.62;14.75;;;;;;;6.40;46.87;100552.67;1759397;80;22358;-56
2022/03/26 04:10:35;;;;;;;20.90;14.55;;;;;;;7.44;46.16;100545.77;1725974;82;20999;-57
2022/03/26 04:13:03;;;;;;;22.80;15.45;;;;;;;7.59;44.93;100547.78;1777471;80;21653;-56
2022/03/26 04:15:31;;;;;;;21.45;15.20;;;;;;;8.39;43.06;100538.57;1778388;80;20979;-56
2022/03/26 04:17:58;;;;;;;25.90;16.25;;;;;;;9.08;42.34;100540.29;1776521;80;21086;-54
2022/03/26 04:20:27;;;;;;;20.55;14.13;;;;;;;10.18;39.88;100535.87;1742427;81;20967;-55
2022/03/26 04:22:53;;;;;;;21.82;15.58;;;;;;;9.60;39.76;100538.50;1749784;81;21013;-55
2022/03/26 04:25:20;;;;;;;22.25;16.27;;;;;;;9.75;39.69;100533.38;1749523;81;20962;-55
2022/03/26 04:27:49;;;;;;;21.50;14.55;;;;;;;10.26;38.75;100533.73;1746958;81;21159;-56
2022/03/26 04:30:16;;;;;;;21.42;15.95;;;;;;;10.56;38.09;100528.13;1734056;81;21097;-58
2022/03/26 04:32:43;;;;;;;20.43;15.08;;;;;;;11.37;36.68;100525.70;1745383;80;22253;-56
2022/03/26 04:35:10;;;;;;;23.50;16.05;;;;;;;11.52;36.35;100529.11;1749904;80;20999;-57
2022/03/26 04:37:37;;;;;;;22.27;15.33;;;;;;;11.89;35.55;100516.41;1747780;81;21065;-60
2022/03/26 04:40:05;;;;;;;23.07;15.77;;;;;;;12.19;34.82;100517.58;1749152;81;21817;-62
2022/03/26 04:42:32;;;;;;;19.70;16.07;;;;;;;12.49;34.31;100518.75;1748323;81;22619;-60
2022/03/26 04:45:00;;;;;;;18.40;15.57;;;;;;;12.76;34.03;100517.94;1749849;81;21305;-57
2022/03/26 04:47:26;;;;;;;19.23;14.80;;;;;;;13.07;33.30;100518.06;1748825;80;21229;-58
2022/03/26 04:49:54;;;;;;;18.10;15.57;;;;;;;13.34;32.82;100515.11;1749862;81;21821;-61
2022/03/26 04:52:21;;;;;;;19.37;15.10;;;;;;;13.57;32.52;100516.91;1749320;81;21745;-56
2022/03/26 04:54:49;;;;;;;19.70;15.07;;;;;;;14.15;31.66;100515.13;1747690;81;21445;-56
2022/03/26 04:57:17;;;;;;;18.53;14.83;;;;;;;14.90;30.80;100517.06;1750118;80;21656;-58
2022/03/26 04:59:46;;;;;;;21.00;14.83;;;;;;;15.22;30.00;100507.47;1747758;80;21958;-62
2022/03/26 05:02:13;;;;;;;21.33;14.67;;;;;;;15.43;29.47;100506.91;1749155;80;21667;-62
2022/03/26 05:04:41;;;;;;;19.50;15.83;;;;;;;15.84;29.04;100501.79;1748548;81;21467;-58
2022/03/26 05:09:53;;;;;;;18.73;15.43;;;;;;;16.28;28.50;100504.30;1748705;81;21167;-62
2022/03/26 05:12:21;;;;;;;22.53;15.70;;;;;;;16.46;27.68;100497.48;1750230;81;21065;-58
2022/03/26 05:14:51;;;;;;;21.27;16.52;;;;;;;16.49;27.37;100498.37;1749386;81;20995;-57
2022/03/26 05:17:18;;;;;;;18.97;15.90;;;;;;;16.47;27.15;100495.14;1750255;80;21079;-62
2022/03/26 05:19:47;;;;;;;20.07;17.10;;;;;;;16.34;27.08;100492.63;1747472;81;21049;-62
2022/03/26 05:22:14;;;;;;;23.77;17.93;;;;;;;16.08;27.65;100497.58;1753830;81;21765;-57
2022/03/26 05:24:42;;;;;;;19.70;16.30;;;;;;;15.63;27.68;100500.24;1748218;80;21061;-58
2022/03/26 05:27:10;;;;;;;25.13;18.47;;;;;;;15.05;28.62;100504.51;1749915;81;21532;-61
2022/03/26 05:29:39;;;;;;;22.60;18.50;;;;;;;15.05;28.62;100504.51;1747574;81;21491;-56
2022/03/26 05:32:07;;;;;;;19.07;15.97;;;;;;;14.94;28.88;100506.45;1749611;80;21862;-60
2022/03/26 05:34:34;;;;;;;19.90;16.03;;;;;;;14.43;29.52;100502.33;1748253;81;22005;-59
2022/03/26 05:37:01;;;;;;;22.53;16.97;;;;;;;14.43;29.52;100502.33;1749781;81;21605;-58
2022/03/26 05:39:28;;;;;;;22.57;16.60;;;;;;;14.16;29.66;100499.69;1747948;80;21305;-63
2022/03/26 05:41:55;;;;;;;24.67;16.20;;;;;;;14.03;29.74;100493.14;1762711;80;21372;-57
2022/03/26 05:44:23;;;;;;;21.50;16.53;;;;;;;14.08;29.63;100494.64;1773857;80;21437;-58
2022/03/26 05:46:51;;;;;;;31.30;17.07;;;;;;;14.08;29.63;100494.64;1776215;80;21394;-57
2022/03/26 05:49:19;;;;;;;27.17;19.73;;;;;;;13.94;30.03;100494.31;1778304;80;21294;-61
2022/03/26 05:51:50;;;;;;;27.60;21.97;;;;;;;13.76;30.09;100498.33;1771604;80;21421;-59
2022/03/26 05:54:17;;;;;;;29.23;23.37;;;;;;;13.86;30.11;100498.77;1774969;80;21327;-57
2022/03/26 05:56:51;;;;;;;24.90;21.13;;;;;;;13.91;30.05;100493.43;1777486;80;21139;-57
2022/03/26 05:59:21;;;;;;;22.70;17.00;;;;;;;13.90;30.31;100499.66;1777164;80;22966;-56
2022/03/26 06:01:48;;;;;;;20.87;16.43;;;;;;;14.09;30.03;100497.56;1772439;80;21319;-55
2022/03/26 06:04:16;;;;;;;24.57;15.90;;;;;;;14.00;29.74;100494.84;1778322;80;21633;-58
2022/03/26 06:06:44;;;;;;;20.23;14.70;;;;;;;14.11;29.52;100494.25;1780178;80;21361;-57
2022/03/26 06:09:12;;;;;;;18.67;14.60;;;;;;;14.11;29.49;100494.25;1777627;80;21166;-58
2022/03/26 06:11:39;;;;;;;20.47;14.50;;;;;;;14.19;29.40;100489.32;1775646;80;21193;-56
2022/03/26 06:14:07;;;;;;;20.43;16.83;;;;;;;14.29;29.53;100483.98;1779969;80;21111;-56
2022/03/26 06:16:35;;;;;;;19.83;14.67;;;;;;;14.79;29.67;100483.06;1776264;80;21202;-56
2022/03/26 06:19:02;;;;;;;38.97;27.53;;;;;;;14.79;29.67;100483.06;1777583;80;21279;-56
2022/03/26 06:21:29;;;;;;;29.63;22.93;;;;;;;15.08;29.37;100476.53;1774299;79;21469;-57
2022/03/26 06:24:02;;;;;;;17.33;13.20;;;;;;;15.52;29.14;100475.43;1763468;80;22475;-58
2022/03/26 06:26:26;;;;;;;18.13;13.80;;;;;;;15.95;28.83;100471.69;1775216;80;21544;-58
2022/03/26 06:28:53;;;;;;;20.33;13.43;;;;;;;16.40;28.37;100470.23;1775438;80;22266;-57
2022/03/26 06:31:20;;;;;;;22.20;17.43;;;;;;;16.74;28.06;100471.55;1777875;80;22610;-62
2022/03/26 06:33:47;;;;;;;20.13;14.83;;;;;;;17.12;27.88;100460.00;1775828;80;21645;-56
2022/03/26 06:36:14;;;;;;;21.80;18.00;;;;;;;17.47;27.98;100458.84;1776427;80;21185;-56
2022/03/26 06:38:41;;;;;;;21.57;16.60;;;;;;;18.06;27.84;100453.73;1778993;80;21729;-58
2022/03/26 06:41:13;;;;;;;17.80;14.30;;;;;;;18.66;27.07;100452.20;1778135;80;21073;-55
2022/03/26 06:43:39;;;;;;;16.87;14.33;;;;;;;19.05;26.63;100451.17;1774979;80;21049;-60
2022/03/26 06:46:06;;;;;;;17.57;13.73;;;;;;;19.36;26.50;100452.59;1777944;80;21105;-55
2022/03/26 06:48:33;;;;;;;17.83;13.57;;;;;;;19.78;26.46;100454.95;1777271;79;21749;-59
2022/03/26 06:51:01;;;;;;;17.30;13.67;;;;;;;20.35;26.23;100451.34;1779871;80;22067;-56
2022/03/26 06:53:30;;;;;;;16.70;14.43;;;;;;;20.81;25.55;100437.42;1774804;80;21013;-57
2022/03/26 06:55:57;;;;;;;19.20;15.57;;;;;;;21.02;25.33;100434.48;1755144;80;21022;-57
2022/03/26 06:58:25;;;;;;;22.63;18.53;;;;;;;21.60;25.01;100434.33;1775743;80;20969;-62
2022/03/26 07:00:52;;;;;;;20.93;17.43;;;;;;;21.83;25.01;100432.66;1777282;80;21057;-56
2022/03/26 07:03:19;;;;;;;20.13;16.90;;;;;;;22.16;24.78;100427.34;1778573;80;21042;-57
2022/03/26 07:05:48;;;;;;;17.40;15.17;;;;;;;22.39;24.71;100430.97;1779179;80;21556;-57
2022/03/26 07:08:15;;;;;;;20.23;14.77;;;;;;;22.71;24.50;100432.72;1781765;80;21045;-58
2022/03/26 07:10:45;;;;;;;21.63;14.90;;;;;;;22.88;24.49;100437.82;1779116;80;21067;-57
2022/03/26 07:13:13;;;;;;;19.93;15.40;;;;;;;23.24;24.29;100432.12;1769723;80;21252;-56
2022/03/26 07:15:43;;;;;;;23.67;20.13;;;;;;;23.38;24.29;100426.58;1780167;80;20914;-60
2022/03/26 07:18:11;;;;;;;17.07;15.27;;;;;;;23.58;24.30;100419.67;1773855;80;21460;-57
2022/03/26 07:20:39;;;;;;;16.57;14.87;;;;;;;23.79;24.54;100418.66;1779228;80;20926;-57
2022/03/26 07:23:06;;;;;;;21.40;17.77;;;;;;;24.14;24.27;100412.48;1779938;80;21061;-57
2022/03/26 07:25:34;;;;;;;18.40;14.77;;;;;;;24.19;24.19;100411.14;1779876;80;23009;-56
2022/03/26 07:28:01;;;;;;;16.13;14.37;;;;;;;24.25;24.27;100411.94;1779123;80;21019;-57
2022/03/26 07:30:28;;;;;;;19.40;16.87;;;;;;;24.58;23.86;100401.19;1777892;80;22555;-58
2022/03/26 07:32:55;;;;;;;20.33;15.83;;;;;;;24.70;23.87;100399.54;1776189;80;21106;-56
2022/03/26 07:35:24;;;;;;;16.63;13.57;;;;;;;24.85;23.85;100400.83;1774868;80;20983;-58
2022/03/26 07:37:51;;;;;;;24.30;20.83;;;;;;;24.82;23.63;100400.04;1764842;80;21880;-58
2022/03/26 07:40:17;;;;;;;26.33;14.30;;;;;;;25.21;23.68;100397.98;1742759;81;21089;-59
2022/03/26 07:42:46;;;;;;;17.80;12.37;;;;;;;24.93;23.39;100394.92;1774752;80;20961;-56
2022/03/26 07:45:13;;;;;;;18.90;13.17;;;;;;;25.02;23.18;100390.33;1738788;81;21007;-59
2022/03/26 07:47:41;;;;;;;18.70;13.07;;;;;;;24.79;23.48;100388.58;1765190;80;20969;-57
2022/03/26 07:50:11;;;;;;;19.63;12.33;;;;;;;24.55;23.71;100387.10;1748684;81;21289;-60
2022/03/26 07:52:41;;;;;;;16.35;13.18;;;;;;;24.65;23.79;100381.70;1736567;80;21101;-58
2022/03/26 07:55:09;;;;;;;15.13;12.40;;;;;;;24.63;23.79;100374.53;1772666;80;21108;-57
2022/03/26 07:57:37;;;;;;;32.03;13.67;;;;;;;24.65;23.72;100380.91;1743583;81;21525;-58
2022/03/26 08:00:06;;;;;;;18.73;11.03;;;;;;;24.44;23.87;100374.34;1771111;80;21072;-59
2022/03/26 08:02:36;;;;;;;13.43;12.00;;;;;;;24.22;24.16;100378.64;1743042;81;20962;-57
2022/03/26 08:05:07;;;;;;;16.40;13.07;;;;;;;24.24;24.14;100373.85;1736176;81;21125;-56
2022/03/26 08:07:35;;;;;;;14.33;11.75;;;;;;;24.46;24.03;100366.86;1742205;81;26004;-58
2022/03/26 08:10:03;;;;;;;17.90;11.30;;;;;;;24.81;23.13;100366.97;1741787;81;20991;-61
2022/03/26 08:12:30;;;;;;;14.80;10.77;;;;;;;24.63;23.23;100367.08;1742117;81;21439;-58
2022/03/26 08:14:57;;;;;;;12.50;10.00;;;;;;;24.74;23.12;100356.63;1740631;81;22212;-57
2022/03/26 08:17:25;;;;;;;14.80;11.17;;;;;;;24.93;22.91;100348.80;1743271;81;20987;-56
2022/03/26 08:19:52;;;;;;;14.47;9.90;;;;;;;25.23;22.41;100346.48;1742247;81;21031;-58
2022/03/26 08:22:19;;;;;;;22.43;11.90;;;;;;;25.31;22.14;100334.42;1742982;81;21587;-61
2022/03/26 08:24:45;;;;;;;16.03;10.27;;;;;;;25.13;22.16;100330.00;1739755;81;21791;-59
2022/03/26 08:27:12;;;;;;;12.43;9.73;;;;;;;25.06;22.05;100328.16;1744676;81;21363;-57
2022/03/26 08:29:38;;;;;;;12.20;8.40;;;;;;;25.13;21.93;100323.88;1742729;80;21035;-59
2022/03/26 08:32:07;;;;;;;13.77;9.57;;;;;;;25.06;22.21;100324.70;1742229;81;21469;-59
2022/03/26 08:34:33;;;;;;;14.27;8.63;;;;;;;25.13;21.98;100310.55;1740767;80;21074;-61
2022/03/26 08:37:00;;;;;;;12.40;9.07;;;;;;;25.09;21.92;100307.60;1747217;81;21108;-57
2022/03/26 08:39:27;;;;;;;14.33;8.33;;;;;;;24.97;21.97;100301.28;1750003;81;21570;-56
2022/03/26 08:41:55;;;;;;;13.57;8.37;;;;;;;24.76;21.76;100293.16;1742375;81;21101;-58
2022/03/26 08:44:22;;;;;;;13.77;8.67;;;;;;;24.56;21.92;100297.28;1748201;81;21113;-57
2022/03/26 08:46:49;;;;;;;11.57;8.77;;;;;;;24.91;21.56;100292.26;1739247;81;21484;-57
2022/03/26 08:49:15;;;;;;;13.77;9.13;;;;;;;25.74;20.97;100281.96;1746533;81;21336;-56
2022/03/26 08:51:43;;;;;;;21.93;10.07;;;;;;;25.86;20.71;100269.03;1745787;81;21860;-58
2022/03/26 08:54:10;;;;;;;21.00;9.50;;;;;;;26.16;20.30;100276.44;1743037;81;20987;-58
2022/03/26 08:56:37;;;;;;;12.93;8.47;;;;;;;26.23;20.12;100264.86;1748730;81;21430;-58
2022/03/26 08:59:04;;;;;;;14.10;8.37;;;;;;;26.10;19.91;100262.36;1751369;80;22025;-57
2022/03/26 09:01:31;;;;;;;15.93;9.57;;;;;;;25.83;20.42;100262.92;1752916;81;21125;-56
2022/03/26 09:03:57;;;;;;;15.00;9.37;;;;;;;25.99;20.12;100254.22;1769312;80;21238;-56
2022/03/26 09:06:25;;;;;;;15.93;9.07;;;;;;;24.77;20.62;100248.09;1776983;80;20983;-57
2022/03/26 09:08:52;;;;;;;18.27;8.77;;;;;;;25.07;20.65;100247.59;1770918;80;21494;-57
2022/03/26 09:11:22;;;;;;;12.87;8.37;;;;;;;25.62;19.98;100238.84;1767743;80;21093;-56
2022/03/26 09:13:50;;;;;;;21.87;10.07;;;;;;;25.43;20.19;100239.56;1765442;80;20983;-57
2022/03/26 09:16:18;;;;;;;19.27;10.10;;;;;;;25.60;19.43;100217.76;1766929;80;21058;-56
2022/03/26 09:18:46;;;;;;;13.90;8.17;;;;;;;25.43;19.83;100224.89;1769089;80;20993;-60
2022/03/26 09:21:12;;;;;;;13.47;8.53;;;;;;;25.51;19.79;100229.36;1780653;80;21530;-58
2022/03/26 09:23:39;;;;;;;12.50;8.23;;;;;;;25.45;19.71;100221.93;1774200;80;21528;-57
2022/03/26 09:26:06;;;;;;;13.13;9.13;;;;;;;25.48;19.59;100222.16;1773847;80;21466;-60
2022/03/26 09:28:33;;;;;;;14.80;8.97;;;;;;;25.44;19.83;100215.00;1778489;80;21958;-61
2022/03/26 09:31:00;;;;;;;15.23;9.40;;;;;;;24.66;20.31;100220.73;1782186;80;21199;-59
2022/03/26 09:33:27;;;;;;;12.53;8.70;;;;;;;25.04;19.74;100209.48;1778576;80;21062;-58
2022/03/26 09:35:54;;;;;;;11.23;9.27;;;;;;;25.41;19.66;100206.23;1780131;80;21090;-57
2022/03/26 09:38:20;;;;;;;14.83;11.00;;;;;;;25.63;19.19;100199.05;1779444;79;21027;-59
2022/03/26 09:40:47;;;;;;;13.20;8.80;;;;;;;25.60;19.28;100204.41;1781388;80;21233;-58
2022/03/26 09:43:14;;;;;;;13.33;8.77;;;;;;;24.98;19.46;100190.08;1779885;80;21543;-57
2022/03/26 09:45:41;;;;;;;12.67;9.20;;;;;;;24.85;19.67;100190.20;1781301;80;21468;-57
2022/03/26 09:48:08;;;;;;;23.40;9.87;;;;;;;24.83;19.85;100172.87;1780705;79;21554;-57
2022/03/26 09:50:38;;;;;;;16.63;9.77;;;;;;;24.97;19.93;100184.49;1781877;80;21626;-57
2022/03/26 09:53:05;;;;;;;12.50;8.60;;;;;;;24.78;20.01;100179.05;1785804;79;21266;-57
2022/03/26 09:55:31;;;;;;;16.60;9.37;;;;;;;24.54;19.94;100177.62;1759692;80;21347;-57
2022/03/26 09:57:58;;;;;;;12.77;8.67;;;;;;;24.31;19.95;100183.06;1782871;80;21100;-60
2022/03/26 10:00:26;;;;;;;11.47;8.23;;;;;;;24.14;20.22;100179.98;1746238;81;21013;-57
2022/03/26 10:02:53;;;;;;;12.87;8.70;;;;;;;24.61;19.91;100172.77;1771916;80;21062;-61
2022/03/26 10:05:21;;;;;;;14.47;8.47;;;;;;;24.64;19.72;100170.89;1758090;81;21167;-58
2022/03/26 10:07:49;;;;;;;12.20;8.77;;;;;;;24.76;19.71;100153.20;1701713;81;21557;-58
2022/03/26 10:10:24;;;;;;;11.83;8.83;;;;;;;24.95;19.66;100162.09;1755710;81;20957;-61
2022/03/26 10:12:52;;;;;;;11.47;9.40;;;;;;;24.94;19.55;100153.84;1755611;81;21101;-63
2022/03/26 10:15:19;;;;;;;21.80;10.17;;;;;;;24.98;19.43;100150.08;1756110;81;21143;-60
2022/03/26 10:17:46;;;;;;;14.27;8.83;;;;;;;24.95;19.18;100143.97;1757994;80;21177;-58
2022/03/26 10:20:15;;;;;;;16.97;9.40;;;;;;;24.81;18.99;100130.48;1755786;81;20994;-64
2022/03/26 10:22:48;;;;;;;14.20;9.13;;;;;;;24.53;19.32;100133.94;1751775;81;21153;-58
2022/03/26 10:25:18;;;;;;;13.53;8.57;;;;;;;24.55;19.39;100123.78;1710893;81;21074;-59
2022/03/26 10:27:49;;;;;;;13.37;8.87;;;;;;;24.43;19.54;100108.95;1718764;81;21573;-59
2022/03/26 10:32:39;;;;;;;26.15;10.50;;;;;;;24.46;19.57;100119.05;1687442;81;21199;-58
2022/03/26 10:32:49;;;;;;;;;;;;;;;24.42;19.57;100094.04;1656850;84;20979;-59
2022/03/26 10:35:22;;;;;;;19.27;11.33;;;;;;;24.43;19.54;100094.83;1654616;84;20185;-59
2022/03/26 10:38:02;;;;;;;16.50;10.33;;;;;;;24.43;19.80;100094.29;1712765;81;21004;-60
2022/03/26 10:40:34;;;;;;;22.67;10.57;;;;;;;24.57;19.38;100082.46;1689086;82;21026;-64
2022/03/26 10:43:11;;;;;;;15.13;11.00;;;;;;;24.42;19.40;100078.59;1751028;81;21147;-57
2022/03/26 10:45:48;;;;;;;14.00;10.40;;;;;;;24.43;19.52;100072.97;1725205;82;21033;-58
2022/03/26 10:48:18;;;;;;;21.53;10.67;;;;;;;24.58;19.56;100076.59;1695776;83;21065;-59
2022/03/26 10:50:45;;;;;;;11.10;8.83;;;;;;;24.50;19.41;100061.46;1760349;80;21118;-60
2022/03/26 10:53:16;;;;;;;14.23;8.93;;;;;;;24.45;19.35;100063.39;1741634;80;21064;-57
2022/03/26 10:55:43;;;;;;;12.87;9.33;;;;;;;24.40;19.54;100049.58;1750278;81;21477;-57
2022/03/26 10:58:10;;;;;;;16.00;9.40;;;;;;;24.40;19.51;100046.91;1751780;81;21017;-57
2022/03/26 11:00:37;;;;;;;17.57;12.13;;;;;;;24.31;19.73;100040.55;1751167;81;21080;-57
2022/03/26 11:03:04;;;;;;;17.97;13.90;;;;;;;24.44;19.83;100027.17;1751383;80;21068;-58
2022/03/26 11:05:31;;;;;;;20.83;11.50;;;;;;;24.68;19.31;100037.86;1786940;80;21022;-56
2022/03/26 11:07:58;;;;;;;29.40;10.37;;;;;;;24.60;19.32;100034.48;1754359;81;22338;-56
2022/03/26 11:10:25;;;;;;;15.30;10.03;;;;;;;24.64;18.99;100026.96;1753240;81;21116;-56
2022/03/26 11:12:54;;;;;;;14.47;9.93;;;;;;;24.51;19.18;100023.10;1746459;81;21047;-57
2022/03/26 11:15:32;;;;;;;13.83;10.23;;;;;;;24.59;19.43;100029.69;1738309;81;20912;-56
2022/03/26 11:18:07;;;;;;;18.87;9.37;;;;;;;24.63;19.38;100008.06;1721593;82;21642;-57